KFNT/FNT METAR and TAF weather

Enter ICAO airport designator
Station Type Date Time Source
KFNT METAR 2019/06/27 07:53 UTC NOAA

KFNT 270753Z AUTO 00000KT 10SM CLR 16/14 A3015 RMK AO2 SLP206 T01610139


Station Type Date Time Source
KFNT Decoded METAR 2019/06/27 07:53 UTC NOAA

FLINT BISHOP INTERNATIONAL AIRPORT, MI, United States (KFNT) 42-58N 83-45W 233M
Jun 27, 2019 - 03:53 AM EDT / 2019.06.27 0753 UTC
Wind: Calm:0
Visibility: 10 mile(s):0
Sky conditions: clear
Temperature: 61.0 F (16.1 C)
Dew Point: 57.0 F (13.9 C)
Relative Humidity: 86%
Pressure (altimeter): 30.15 in. Hg (1020 hPa)
ob: KFNT 270753Z AUTO 00000KT 10SM CLR 16/14 A3015 RMK AO2 SLP206 T01610139
cycle: 8

Station Type Date Time Source
KFNT TAF 2019/06/27 06:42 UTC NOAA

TAF KFNT 270540Z 2706/2806 VRB04KT P6SM BKN250
FM271500 19005KT P6SM SKC

Example: see airport list